Time,TemperatureF,DewpointF,PressureIn,WindDirection,WindDirectionDegrees,WindSpeedMPH,WindSpeedGustMPH,Humidity,HourlyPrecipIn,Conditions,Clouds,dailyrainin,SoftwareType,DateUTC
2013-03-19 00:03:00,78.0,-99.9,30.03,East,80,16.0,20.0,-999,-99.99,,,-99.99,,2013-03-19 04:03:00,
2013-03-19 00:13:00,78.0,-99.9,30.03,East,80,16.0,20.0,-999,-99.99,,,-99.99,,2013-03-19 04:13:00,
2013-03-19 00:23:00,78.0,-99.9,30.03,East,80,16.0,20.0,-999,-99.99,,,-99.99,,2013-03-19 04:23:00,
2013-03-19 00:34:00,77.0,-99.9,30.01,East,80,18.0,20.0,-999,-99.99,,,-99.99,,2013-03-19 04:34:00,
2013-03-19 00:43:00,77.0,-99.9,30.01,East,80,18.0,20.0,-999,-99.99,,,-99.99,,2013-03-19 04:43:00,
2013-03-19 00:53:00,77.0,-99.9,30.01,East,80,18.0,20.0,-999,-99.99,,,-99.99,,2013-03-19 04:53:00,
2013-03-19 01:02:00,77.0,-99.9,30.01,ENE,70,18.0,22.0,-999,-99.99,,,-99.99,,2013-03-19 05:02:00,
2013-03-19 01:12:00,77.0,-99.9,30.01,ENE,70,18.0,22.0,-999,-99.99,,,-99.99,,2013-03-19 05:12:00,
2013-03-19 01:22:00,77.0,-99.9,30.01,ENE,70,18.0,22.0,-999,-99.99,,,-99.99,,2013-03-19 05:22:00,
2013-03-19 01:33:00,77.0,-99.9,30.00,ENE,70,18.0,22.0,-999,-99.99,,,-99.99,,2013-03-19 05:33:00,
2013-03-19 01:43:00,77.0,-99.9,30.00,ENE,70,18.0,22.0,-999,-99.99,,,-99.99,,2013-03-19 05:43:00,
2013-03-19 01:52:00,77.0,-99.9,30.00,ENE,70,18.0,22.0,-999,-99.99,,,-99.99,,2013-03-19 05:52:00,
2013-03-19 02:03:00,77.0,-99.9,29.98,East,80,16.0,20.0,-999,-99.99,,,-99.99,,2013-03-19 06:03:00,
2013-03-19 02:12:00,77.0,-99.9,29.98,East,80,16.0,20.0,-999,-99.99,,,-99.99,,2013-03-19 06:12:00,
2013-03-19 02:22:00,77.0,-99.9,29.98,East,80,16.0,20.0,-999,-99.99,,,-99.99,,2013-03-19 06:22:00,
2013-03-19 02:32:00,77.0,-99.9,29.97,ENE,70,16.0,20.0,-999,-99.99,,,-99.99,,2013-03-19 06:32:00,
2013-03-19 02:42:00,77.0,-99.9,29.97,ENE,70,16.0,20.0,-999,-99.99,,,-99.99,,2013-03-19 06:42:00,
2013-03-19 02:53:00,77.0,-99.9,29.97,ENE,70,16.0,20.0,-999,-99.99,,,-99.99,,2013-03-19 06:53:00,
2013-03-19 03:03:00,77.0,-99.9,29.96,ENE,70,16.0,20.0,-999,-99.99,,,-99.99,,2013-03-19 07:03:00,
2013-03-19 03:12:00,77.0,-99.9,29.96,ENE,70,16.0,20.0,-999,-99.99,,,-99.99,,2013-03-19 07:12:00,
2013-03-19 03:22:00,77.0,-99.9,29.96,ENE,70,16.0,20.0,-999,-99.99,,,-99.99,,2013-03-19 07:22:00,
2013-03-19 03:32:00,77.0,-99.9,29.96,ENE,70,16.0,18.0,-999,-99.99,,,-99.99,,2013-03-19 07:32:00,
2013-03-19 03:42:00,77.0,-99.9,29.96,ENE,70,16.0,18.0,-999,-99.99,,,-99.99,,2013-03-19 07:42:00,
2013-03-19 03:53:00,77.0,-99.9,29.96,ENE,70,16.0,18.0,-999,-99.99,,,-99.99,,2013-03-19 07:53:00,
2013-03-19 04:03:00,77.0,-99.9,29.95,East,90,18.0,22.0,-999,-99.99,,,-99.99,,2013-03-19 08:03:00,
2013-03-19 04:13:00,77.0,-99.9,29.95,East,90,18.0,22.0,-999,-99.99,,,-99.99,,2013-03-19 08:13:00,
2013-03-19 04:22:00,77.0,-99.9,29.95,East,90,18.0,22.0,-999,-99.99,,,-99.99,,2013-03-19 08:22:00,
2013-03-19 04:33:00,76.0,-99.9,29.95,ESE,120,7.0,11.0,-999,-99.99,,,-99.99,,2013-03-19 08:33:00,
2013-03-19 04:43:00,76.0,-99.9,29.95,ESE,120,7.0,11.0,-999,-99.99,,,-99.99,,2013-03-19 08:43:00,
2013-03-19 04:53:00,76.0,-99.9,29.95,ESE,120,7.0,11.0,-999,-99.99,,,-99.99,,2013-03-19 08:53:00,
2013-03-19 05:03:00,77.0,-99.9,29.95,East,80,16.0,18.0,-999,-99.99,,,-99.99,,2013-03-19 09:03:00,
2013-03-19 05:12:00,77.0,-99.9,29.95,East,80,16.0,18.0,-999,-99.99,,,-99.99,,2013-03-19 09:12:00,
2013-03-19 05:23:00,77.0,-99.9,29.95,East,80,16.0,18.0,-999,-99.99,,,-99.99,,2013-03-19 09:23:00,
2013-03-19 05:33:00,76.0,-99.9,29.96,East,80,18.0,22.0,-999,-99.99,,,-99.99,,2013-03-19 09:33:00,
2013-03-19 05:43:00,76.0,-99.9,29.96,East,80,18.0,22.0,-999,-99.99,,,-99.99,,2013-03-19 09:43:00,
2013-03-19 05:53:00,76.0,-99.9,29.96,East,80,18.0,22.0,-999,-99.99,,,-99.99,,2013-03-19 09:53:00,
2013-03-19 06:04:00,76.0,-99.9,29.97,East,90,18.0,25.0,-999,-99.99,,,-99.99,,2013-03-19 10:04:00,
2013-03-19 06:13:00,76.0,-99.9,29.97,East,90,18.0,25.0,-999,-99.99,,,-99.99,,2013-03-19 10:13:00,
2013-03-19 06:23:00,76.0,-99.9,29.97,East,90,18.0,25.0,-999,-99.99,,,-99.99,,2013-03-19 10:23:00,
2013-03-19 06:33:00,75.0,-99.9,29.97,East,100,16.0,20.0,-999,-99.99,,,-99.99,,2013-03-19 10:33:00,
2013-03-19 06:42:00,75.0,-99.9,29.97,East,100,16.0,20.0,-999,-99.99,,,-99.99,,2013-03-19 10:42:00,
2013-03-19 06:53:00,75.0,-99.9,29.97,East,100,16.0,20.0,-999,-99.99,,,-99.99,,2013-03-19 10:53:00,
2013-03-19 07:00:00,77.0,-99.9,29.99,East,80,13.0,16.0,-999,-99.99,,,-99.99,,2013-03-19 11:00:00,
2013-03-19 07:03:00,76.0,-99.9,29.98,ENE,70,13.0,16.0,-999,-99.99,,,-99.99,,2013-03-19 11:03:00,
2013-03-19 07:12:00,76.0,-99.9,29.98,ENE,70,13.0,16.0,-999,-99.99,,,-99.99,,2013-03-19 11:12:00,
2013-03-19 07:22:00,76.0,-99.9,29.98,ENE,70,13.0,16.0,-999,-99.99,,,-99.99,,2013-03-19 11:22:00,
2013-03-19 07:33:00,77.0,-99.9,29.99,East,80,13.0,16.0,-999,-99.99,,,-99.99,,2013-03-19 11:33:00,
2013-03-19 07:43:00,77.0,-99.9,29.99,East,80,13.0,16.0,-999,-99.99,,,-99.99,,2013-03-19 11:43:00,
2013-03-19 07:53:00,77.0,-99.9,29.99,East,80,13.0,16.0,-999,-99.99,,,-99.99,,2013-03-19 11:53:00,
2013-03-19 08:33:00,76.0,-99.9,29.99,ESE,110,9.0,11.0,-999,-99.99,,,-99.99,,2013-03-19 12:33:00,
2013-03-19 08:43:00,76.0,-99.9,29.99,ESE,110,9.0,11.0,-999,-99.99,,,-99.99,,2013-03-19 12:43:00,
2013-03-19 08:52:00,76.0,-99.9,29.99,ESE,110,9.0,11.0,-999,-99.99,,,-99.99,,2013-03-19 12:52:00,
2013-03-19 09:02:00,75.0,-99.9,29.99,East,100,11.0,13.0,-999,-99.99,,,-99.99,,2013-03-19 13:02:00,
2013-03-19 09:13:00,75.0,-99.9,29.99,East,100,11.0,13.0,-999,-99.99,,,-99.99,,2013-03-19 13:13:00,
2013-03-19 09:23:00,75.0,-99.9,29.99,East,100,11.0,13.0,-999,-99.99,,,-99.99,,2013-03-19 13:23:00,
2013-03-19 09:33:00,77.0,-99.9,30.00,ESE,110,7.0,9.0,-999,-99.99,,,-99.99,,2013-03-19 13:33:00,
2013-03-19 09:42:00,77.0,-99.9,30.00,ESE,110,7.0,9.0,-999,-99.99,,,-99.99,,2013-03-19 13:42:00,
2013-03-19 09:53:00,77.0,-99.9,30.00,ESE,110,7.0,9.0,-999,-99.99,,,-99.99,,2013-03-19 13:53:00,
2013-03-19 10:02:00,77.0,-99.9,30.01,ESE,120,13.0,16.0,-999,-99.99,,,-99.99,,2013-03-19 14:02:00,
2013-03-19 10:12:00,77.0,-99.9,30.01,ESE,120,13.0,16.0,-999,-99.99,,,-99.99,,2013-03-19 14:12:00,
2013-03-19 10:23:00,77.0,-99.9,30.01,ESE,120,13.0,16.0,-999,-99.99,,,-99.99,,2013-03-19 14:23:00,
2013-03-19 10:33:00,78.0,-99.9,30.01,East,100,13.0,16.0,-999,-99.99,,,-99.99,,2013-03-19 14:33:00,
2013-03-19 10:42:00,78.0,-99.9,30.01,East,100,13.0,16.0,-999,-99.99,,,-99.99,,2013-03-19 14:42:00,
2013-03-19 10:53:00,78.0,-99.9,30.01,East,100,13.0,16.0,-999,-99.99,,,-99.99,,2013-03-19 14:53:00,
2013-03-19 11:03:00,78.0,-99.9,30.00,East,80,18.0,22.0,-999,-99.99,,,-99.99,,2013-03-19 15:03:00,
2013-03-19 11:12:00,78.0,-99.9,30.00,East,80,18.0,22.0,-999,-99.99,,,-99.99,,2013-03-19 15:12:00,
2013-03-19 11:23:00,78.0,-99.9,30.00,East,80,18.0,22.0,-999,-99.99,,,-99.99,,2013-03-19 15:23:00,
2013-03-19 11:34:00,78.0,-99.9,30.00,ENE,70,16.0,20.0,-999,-99.99,,,-99.99,,2013-03-19 15:34:00,
2013-03-19 11:44:00,78.0,-99.9,30.00,ENE,70,16.0,20.0,-999,-99.99,,,-99.99,,2013-03-19 15:44:00,
2013-03-19 11:54:00,78.0,-99.9,30.00,ENE,70,16.0,20.0,-999,-99.99,,,-99.99,,2013-03-19 15:54:00,
2013-03-19 12:04:00,78.0,-99.9,29.99,ENE,70,16.0,20.0,-999,-99.99,,,-99.99,,2013-03-19 16:04:00,
2013-03-19 12:13:00,78.0,-99.9,29.99,ENE,70,16.0,20.0,-999,-99.99,,,-99.99,,2013-03-19 16:13:00,
2013-03-19 12:24:00,78.0,-99.9,29.99,ENE,70,16.0,20.0,-999,-99.99,,,-99.99,,2013-03-19 16:24:00,
2013-03-19 12:34:00,78.0,-99.9,29.98,ENE,70,18.0,20.0,-999,-99.99,,,-99.99,,2013-03-19 16:34:00,
2013-03-19 12:44:00,78.0,-99.9,29.98,ENE,70,18.0,20.0,-999,-99.99,,,-99.99,,2013-03-19 16:44:00,
2013-03-19 12:55:00,78.0,-99.9,29.98,ENE,70,18.0,20.0,-999,-99.99,,,-99.99,,2013-03-19 16:55:00,
2013-03-19 13:03:00,78.0,-99.9,29.96,ENE,70,18.0,20.0,-999,-99.99,,,-99.99,,2013-03-19 17:03:00,
2013-03-19 13:14:00,78.0,-99.9,29.96,ENE,70,18.0,20.0,-999,-99.99,,,-99.99,,2013-03-19 17:14:00,
2013-03-19 13:24:00,78.0,-99.9,29.96,ENE,70,18.0,20.0,-999,-99.99,,,-99.99,,2013-03-19 17:24:00,
2013-03-19 13:35:00,78.0,-99.9,29.96,East,80,16.0,20.0,-999,-99.99,,,-99.99,,2013-03-19 17:35:00,
2013-03-19 13:44:00,78.0,-99.9,29.96,East,80,16.0,20.0,-999,-99.99,,,-99.99,,2013-03-19 17:44:00,
2013-03-19 13:53:00,78.0,-99.9,29.96,East,80,16.0,20.0,-999,-99.99,,,-99.99,,2013-03-19 17:53:00,
2013-03-19 14:03:00,78.0,-99.9,29.94,East,80,18.0,22.0,-999,-99.99,,,-99.99,,2013-03-19 18:03:00,
2013-03-19 14:14:00,78.0,-99.9,29.94,East,80,18.0,22.0,-999,-99.99,,,-99.99,,2013-03-19 18:14:00,
2013-03-19 14:23:00,78.0,-99.9,29.94,East,80,18.0,22.0,-999,-99.99,,,-99.99,,2013-03-19 18:23:00,
2013-03-19 14:34:00,78.0,-99.9,29.93,ENE,70,18.0,20.0,-999,-99.99,,,-99.99,,2013-03-19 18:34:00,
2013-03-19 14:44:00,78.0,-99.9,29.93,ENE,70,18.0,20.0,-999,-99.99,,,-99.99,,2013-03-19 18:44:00,
2013-03-19 14:54:00,78.0,-99.9,29.93,ENE,70,18.0,20.0,-999,-99.99,,,-99.99,,2013-03-19 18:54:00,
2013-03-19 15:03:00,79.0,-99.9,29.92,East,80,16.0,20.0,-999,-99.99,,,-99.99,,2013-03-19 19:03:00,
2013-03-19 15:13:00,79.0,-99.9,29.92,East,80,16.0,20.0,-999,-99.99,,,-99.99,,2013-03-19 19:13:00,
2013-03-19 15:23:00,79.0,-99.9,29.92,East,80,16.0,20.0,-999,-99.99,,,-99.99,,2013-03-19 19:23:00,
2013-03-19 15:33:00,79.0,-99.9,29.91,East,80,18.0,20.0,-999,-99.99,,,-99.99,,2013-03-19 19:33:00,
2013-03-19 15:43:00,79.0,-99.9,29.91,East,80,18.0,20.0,-999,-99.99,,,-99.99,,2013-03-19 19:43:00,
2013-03-19 15:53:00,79.0,-99.9,29.91,East,80,18.0,20.0,-999,-99.99,,,-99.99,,2013-03-19 19:53:00,
2013-03-19 16:03:00,79.0,-99.9,29.90,ENE,70,16.0,20.0,-999,-99.99,,,-99.99,,2013-03-19 20:03:00,
2013-03-19 16:12:00,79.0,-99.9,29.90,ENE,70,16.0,20.0,-999,-99.99,,,-99.99,,2013-03-19 20:12:00,
2013-03-19 16:23:00,79.0,-99.9,29.90,ENE,70,16.0,20.0,-999,-99.99,,,-99.99,,2013-03-19 20:23:00,
2013-03-19 16:33:00,79.0,-99.9,29.90,ENE,70,16.0,20.0,-999,-99.99,,,-99.99,,2013-03-19 20:33:00,
2013-03-19 16:43:00,79.0,-99.9,29.90,ENE,70,16.0,20.0,-999,-99.99,,,-99.99,,2013-03-19 20:43:00,
2013-03-19 16:53:00,79.0,-99.9,29.90,ENE,70,16.0,20.0,-999,-99.99,,,-99.99,,2013-03-19 20:53:00,
2013-03-19 17:03:00,79.0,-99.9,29.89,East,80,18.0,20.0,-999,-99.99,,,-99.99,,2013-03-19 21:03:00,
2013-03-19 17:12:00,79.0,-99.9,29.89,East,80,18.0,20.0,-999,-99.99,,,-99.99,,2013-03-19 21:12:00,
2013-03-19 17:23:00,79.0,-99.9,29.89,East,80,18.0,20.0,-999,-99.99,,,-99.99,,2013-03-19 21:23:00,
2013-03-19 17:34:00,79.0,-99.9,29.89,East,80,16.0,20.0,-999,-99.99,,,-99.99,,2013-03-19 21:34:00,
2013-03-19 17:43:00,79.0,-99.9,29.89,East,80,16.0,20.0,-999,-99.99,,,-99.99,,2013-03-19 21:43:00,
2013-03-19 17:53:00,79.0,-99.9,29.89,East,80,16.0,20.0,-999,-99.99,,,-99.99,,2013-03-19 21:53:00,
2013-03-19 18:03:00,79.0,-99.9,29.91,East,80,18.0,20.0,-999,-99.99,,,-99.99,,2013-03-19 22:03:00,
2013-03-19 18:13:00,79.0,-99.9,29.91,East,80,18.0,20.0,-999,-99.99,,,-99.99,,2013-03-19 22:13:00,
2013-03-19 18:24:00,79.0,-99.9,29.91,East,80,18.0,20.0,-999,-99.99,,,-99.99,,2013-03-19 22:24:00,
2013-03-19 18:34:00,79.0,-99.9,29.90,East,80,18.0,20.0,-999,-99.99,,,-99.99,,2013-03-19 22:34:00,
2013-03-19 18:44:00,79.0,-99.9,29.90,East,80,18.0,20.0,-999,-99.99,,,-99.99,,2013-03-19 22:44:00,
2013-03-19 18:54:00,79.0,-99.9,29.90,East,80,18.0,20.0,-999,-99.99,,,-99.99,,2013-03-19 22:54:00,
2013-03-19 19:03:00,78.0,-99.9,29.91,East,90,16.0,20.0,-999,-99.99,,,-99.99,,2013-03-19 23:03:00,
2013-03-19 19:13:00,78.0,-99.9,29.91,East,90,16.0,20.0,-999,-99.99,,,-99.99,,2013-03-19 23:13:00,
2013-03-19 19:22:00,78.0,-99.9,29.91,East,90,16.0,20.0,-999,-99.99,,,-99.99,,2013-03-19 23:22:00,
2013-03-19 19:33:00,78.0,-99.9,29.92,East,80,16.0,20.0,-999,-99.99,,,-99.99,,2013-03-19 23:33:00,
2013-03-19 19:43:00,78.0,-99.9,29.92,East,80,16.0,20.0,-999,-99.99,,,-99.99,,2013-03-19 23:43:00,
2013-03-19 19:53:00,78.0,-99.9,29.92,East,80,16.0,20.0,-999,-99.99,,,-99.99,,2013-03-19 23:53:00,
2013-03-19 20:03:00,79.0,-99.9,29.92,East,100,16.0,20.0,-999,-99.99,,,-99.99,,2013-03-20 00:03:00,
2013-03-19 20:13:00,79.0,-99.9,29.92,East,100,16.0,20.0,-999,-99.99,,,-99.99,,2013-03-20 00:13:00,
2013-03-19 20:22:00,79.0,-99.9,29.92,East,100,16.0,20.0,-999,-99.99,,,-99.99,,2013-03-20 00:22:00,
2013-03-19 20:33:00,78.0,-99.9,29.93,East,90,16.0,18.0,-999,-99.99,,,-99.99,,2013-03-20 00:33:00,
2013-03-19 20:43:00,78.0,-99.9,29.93,East,90,16.0,18.0,-999,-99.99,,,-99.99,,2013-03-20 00:43:00,
2013-03-19 20:53:00,78.0,-99.9,29.93,East,90,16.0,18.0,-999,-99.99,,,-99.99,,2013-03-20 00:53:00,
2013-03-19 21:03:00,78.0,-99.9,29.94,East,100,11.0,13.0,-999,-99.99,,,-99.99,,2013-03-20 01:03:00,
2013-03-19 21:12:00,78.0,-99.9,29.94,East,100,11.0,13.0,-999,-99.99,,,-99.99,,2013-03-20 01:12:00,
2013-03-19 21:23:00,78.0,-99.9,29.94,East,100,11.0,13.0,-999,-99.99,,,-99.99,,2013-03-20 01:23:00,
2013-03-19 21:33:00,78.0,-99.9,29.95,ESE,110,13.0,16.0,-999,-99.99,,,-99.99,,2013-03-20 01:33:00,
2013-03-19 21:43:00,78.0,-99.9,29.95,ESE,110,13.0,16.0,-999,-99.99,,,-99.99,,2013-03-20 01:43:00,
2013-03-19 21:53:00,78.0,-99.9,29.95,ESE,110,13.0,16.0,-999,-99.99,,,-99.99,,2013-03-20 01:53:00,
2013-03-19 22:03:00,78.0,-99.9,29.96,ESE,120,11.0,13.0,-999,-99.99,,,-99.99,,2013-03-20 02:03:00,
2013-03-19 22:12:00,78.0,-99.9,29.96,ESE,120,11.0,13.0,-999,-99.99,,,-99.99,,2013-03-20 02:12:00,
2013-03-19 22:23:00,78.0,-99.9,29.96,ESE,120,11.0,13.0,-999,-99.99,,,-99.99,,2013-03-20 02:23:00,
2013-03-19 22:32:00,78.0,-99.9,29.97,ESE,110,11.0,13.0,-999,-99.99,,,-99.99,,2013-03-20 02:32:00,
2013-03-19 22:43:00,78.0,-99.9,29.97,ESE,110,11.0,13.0,-999,-99.99,,,-99.99,,2013-03-20 02:43:00,
2013-03-19 22:53:00,78.0,-99.9,29.97,ESE,110,11.0,13.0,-999,-99.99,,,-99.99,,2013-03-20 02:53:00,
2013-03-19 23:02:00,78.0,-99.9,29.97,ESE,110,11.0,13.0,-999,-99.99,,,-99.99,,2013-03-20 03:02:00,
2013-03-19 23:12:00,78.0,-99.9,29.97,ESE,110,11.0,13.0,-999,-99.99,,,-99.99,,2013-03-20 03:12:00,
2013-03-19 23:22:00,78.0,-99.9,29.97,ESE,110,11.0,13.0,-999,-99.99,,,-99.99,,2013-03-20 03:22:00,
2013-03-19 23:34:00,78.0,-99.9,29.96,ESE,110,11.0,13.0,-999,-99.99,,,-99.99,,2013-03-20 03:34:00,
2013-03-19 23:43:00,78.0,-99.9,29.96,ESE,110,11.0,13.0,-999,-99.99,,,-99.99,,2013-03-20 03:43:00,
2013-03-19 23:53:00,78.0,-99.9,29.96,ESE,110,11.0,13.0,-999,-99.99,,,-99.99,,2013-03-20 03:53:00,